ADDS METAR Data

Data at: 0742 UTC 24 Oct 2017

METAR for:KRKD (Rockland/Knox Cnty, ME, US)
Text:KRKD 240718Z AUTO 13004KT 9SM FEW004 BKN039 OVC065 14/14 A3015 RMK AO2
Temperature: 14.0°C ( 57°F)
Dewpoint: 14.0°C ( 57°F) [RH = 100%]
Pressure (altimeter):30.15 inches Hg (1021.1 mb)
Winds:from the SE (130 degrees) at 5 MPH (4 knots; 2.1 m/s)
Visibility: 9 sm ( 14 km)
Ceiling:3900 feet AGL
Clouds: few clouds at 400 feet AGL, broken clouds at 3900 feet AGL, overcast cloud deck at 6500 feet AGL
QC Flag:automated observation with no human augmentation